ACA0373 CYUL-CYWG
Flight info
| Callsign | ACA0373 |
|---|---|
| Flight time | N/A |
| Altitude | 34000 |
| Route | KESKA DCT BIPKO DCT IPSAK DCT OMEGI DCT RADEN DCT OVORA DCT GABOV DCT GOVIT NORAK6 |
| Aircraft | B38M/M-SDE2E3FGHIRWXY/LB1 |
Departure
| Time | 2026-05-06 16:17 |
|---|---|
| Airport | Montreal / Pierre Elliott Trudeau International Airport (CYUL) |
Arrival
| Time | N/A |
|---|---|
| Airport | Winnipeg / James Armstrong Richardson International Airport (CYWG) |
| Time | Latitude | Longitude | Altitude | Speed | Heading |
|---|---|---|---|---|---|
| 2026-05-06 15:45 | 45.45891 | -73.74524 | 94 ft | 0 kts | 176° |
| 2026-05-06 16:02 | 45.45897 | -73.74523 | 94 ft | 2 kts | 206° |
| 2026-05-06 16:02 | 45.45909 | -73.74513 | 94 ft | 2 kts | 212° |
| 2026-05-06 16:02 | 45.45922 | -73.74501 | 94 ft | 2 kts | 214° |
| 2026-05-06 16:02 | 45.45933 | -73.74491 | 94 ft | 2 kts | 187° |
| 2026-05-06 16:03 | 45.45948 | -73.74492 | 94 ft | 2 kts | 176° |
| 2026-05-06 16:03 | 45.45957 | -73.74492 | 94 ft | 2 kts | 182° |
| 2026-05-06 16:03 | 45.45971 | -73.74498 | 94 ft | 2 kts | 133° |
| 2026-05-06 16:03 | 45.45977 | -73.74517 | 94 ft | 2 kts | 91° |
| 2026-05-06 16:04 | 45.45977 | -73.74529 | 94 ft | 1 kts | 68° |
| 2026-05-06 16:04 | 45.45974 | -73.74537 | 94 ft | 0 kts | 69° |
| 2026-05-06 16:10 | 45.45978 | -73.74521 | 94 ft | 5 kts | 69° |
| 2026-05-06 16:10 | 45.45993 | -73.74466 | 94 ft | 6 kts | 69° |
| 2026-05-06 16:10 | 45.46006 | -73.74414 | 94 ft | 5 kts | 69° |
| 2026-05-06 16:11 | 45.46019 | -73.74368 | 94 ft | 6 kts | 64° |
| 2026-05-06 16:11 | 45.46059 | -73.74294 | 95 ft | 13 kts | 48° |
| 2026-05-06 16:11 | 45.46125 | -73.74195 | 94 ft | 14 kts | 41° |
| 2026-05-06 16:11 | 45.46147 | -73.74068 | 93 ft | 13 kts | 87° |
| 2026-05-06 16:12 | 45.46196 | -73.73968 | 93 ft | 12 kts | 42° |
| 2026-05-06 16:12 | 45.46259 | -73.73886 | 93 ft | 12 kts | 43° |
| 2026-05-06 16:12 | 45.46318 | -73.73807 | 93 ft | 11 kts | 42° |
| 2026-05-06 16:12 | 45.46374 | -73.73735 | 94 ft | 10 kts | 42° |
| 2026-05-06 16:13 | 45.46441 | -73.73648 | 93 ft | 18 kts | 43° |
| 2026-05-06 16:13 | 45.46555 | -73.73497 | 95 ft | 27 kts | 43° |
| 2026-05-06 16:13 | 45.46710 | -73.73292 | 97 ft | 35 kts | 42° |
| 2026-05-06 16:13 | 45.46900 | -73.73045 | 98 ft | 37 kts | 41° |
| 2026-05-06 16:14 | 45.47082 | -73.72805 | 100 ft | 35 kts | 42° |
| 2026-05-06 16:14 | 45.47257 | -73.72577 | 104 ft | 33 kts | 43° |
| 2026-05-06 16:14 | 45.47418 | -73.72367 | 110 ft | 30 kts | 42° |
| 2026-05-06 16:14 | 45.47564 | -73.72173 | 114 ft | 28 kts | 44° |
| 2026-05-06 16:15 | 45.47703 | -73.71992 | 115 ft | 26 kts | 40° |
| 2026-05-06 16:15 | 45.47815 | -73.71835 | 117 ft | 13 kts | 66° |
| 2026-05-06 16:15 | 45.47786 | -73.71740 | 119 ft | 6 kts | 131° |
| 2026-05-06 16:15 | 45.47783 | -73.71736 | 119 ft | 0 kts | 131° |
| 2026-05-06 16:16 | 45.47783 | -73.71735 | 119 ft | 1 kts | 131° |
| 2026-05-06 16:16 | 45.47732 | -73.71656 | 121 ft | 19 kts | 133° |
| 2026-05-06 16:16 | 45.47650 | -73.71664 | 121 ft | 13 kts | 222° |
| 2026-05-06 16:16 | 45.47627 | -73.71694 | 120 ft | 0 kts | 222° |
| 2026-05-06 16:17 | 45.47469 | -73.71899 | 116 ft | 72 kts | 222° |
| 2026-05-06 16:17 | 45.46902 | -73.72634 | 101 ft | 145 kts | 221° |
| 2026-05-06 16:17 | 45.46019 | -73.73786 | 253 ft | 190 kts | 224° |
| 2026-05-06 16:17 | 45.45123 | -73.75057 | 1332 ft | 181 kts | 226° |
| 2026-05-06 16:18 | 45.44202 | -73.76372 | 1974 ft | 194 kts | 226° |
| 2026-05-06 16:18 | 45.43211 | -73.77745 | 2521 ft | 206 kts | 225° |
| 2026-05-06 16:18 | 45.42162 | -73.79164 | 3172 ft | 211 kts | 225° |
| 2026-05-06 16:18 | 45.41103 | -73.80590 | 3897 ft | 213 kts | 225° |
| 2026-05-06 16:19 | 45.40049 | -73.82036 | 4661 ft | 211 kts | 230° |
| 2026-05-06 16:19 | 45.39448 | -73.83877 | 5329 ft | 211 kts | 266° |
| 2026-05-06 16:19 | 45.39819 | -73.85927 | 5900 ft | 223 kts | 301° |
| 2026-05-06 16:19 | 45.40922 | -73.87570 | 6428 ft | 239 kts | 317° |
| 2026-05-06 16:20 | 45.42228 | -73.89117 | 7036 ft | 251 kts | 316° |
| 2026-05-06 16:20 | 45.43554 | -73.90777 | 7745 ft | 259 kts | 313° |
| 2026-05-06 16:20 | 45.44911 | -73.92563 | 8341 ft | 272 kts | 311° |
| 2026-05-06 16:20 | 45.46289 | -73.94403 | 9110 ft | 276 kts | 311° |
| 2026-05-06 16:21 | 45.47690 | -73.96272 | 9875 ft | 280 kts | 310° |
| 2026-05-06 16:21 | 45.49134 | -73.98201 | 10572 ft | 288 kts | 309° |
| 2026-05-06 16:21 | 45.50625 | -74.00201 | 11023 ft | 303 kts | 309° |
| 2026-05-06 16:21 | 45.52196 | -74.02303 | 11570 ft | 315 kts | 309° |
| 2026-05-06 16:22 | 45.53804 | -74.04443 | 12285 ft | 320 kts | 310° |
| 2026-05-06 16:22 | 45.55428 | -74.06599 | 13036 ft | 323 kts | 309° |
| 2026-05-06 16:22 | 45.57073 | -74.08790 | 13776 ft | 326 kts | 309° |
| 2026-05-06 16:22 | 45.58720 | -74.10988 | 14543 ft | 327 kts | 309° |
| 2026-05-06 16:23 | 45.60383 | -74.13238 | 15234 ft | 330 kts | 307° |
| 2026-05-06 16:23 | 45.61936 | -74.15618 | 15913 ft | 329 kts | 303° |
| 2026-05-06 16:23 | 45.63355 | -74.18172 | 16571 ft | 329 kts | 299° |
| 2026-05-06 16:23 | 45.64707 | -74.20829 | 17196 ft | 332 kts | 297° |
| 2026-05-06 16:24 | 45.66039 | -74.23521 | 17856 ft | 334 kts | 297° |
| 2026-05-06 16:24 | 45.67384 | -74.26235 | 18470 ft | 337 kts | 297° |
| 2026-05-06 16:24 | 45.68750 | -74.28969 | 19030 ft | 341 kts | 298° |
| 2026-05-06 16:24 | 45.70143 | -74.31749 | 19581 ft | 344 kts | 297° |
| 2026-05-06 16:25 | 45.71393 | -74.34642 | 20153 ft | 341 kts | 290° |
| 2026-05-06 16:25 | 45.72269 | -74.37761 | 20690 ft | 336 kts | 279° |
| 2026-05-06 16:25 | 45.72738 | -74.41007 | 21254 ft | 333 kts | 273° |
| 2026-05-06 16:25 | 45.73017 | -74.44277 | 21800 ft | 334 kts | 270° |
| 2026-05-06 16:26 | 45.73239 | -74.47578 | 22314 ft | 337 kts | 270° |
| 2026-05-06 16:26 | 45.73448 | -74.50923 | 22874 ft | 338 kts | 270° |
| 2026-05-06 16:26 | 45.73660 | -74.54280 | 23410 ft | 339 kts | 270° |
| 2026-05-06 16:26 | 45.73876 | -74.57664 | 23851 ft | 343 kts | 270° |
| 2026-05-06 16:27 | 45.74100 | -74.61051 | 24428 ft | 343 kts | 270° |
| 2026-05-06 16:27 | 45.74331 | -74.64462 | 24897 ft | 346 kts | 270° |
| 2026-05-06 16:27 | 45.74565 | -74.67937 | 25395 ft | 348 kts | 269° |
| 2026-05-06 16:27 | 45.74799 | -74.71377 | 25882 ft | 350 kts | 269° |
| 2026-05-06 16:28 | 45.75032 | -74.74835 | 26378 ft | 352 kts | 269° |
| 2026-05-06 16:28 | 45.75271 | -74.78361 | 26900 ft | 353 kts | 269° |
| 2026-05-06 16:28 | 45.75506 | -74.81871 | 27373 ft | 354 kts | 269° |
| 2026-05-06 16:28 | 45.75751 | -74.85392 | 27738 ft | 359 kts | 270° |
| 2026-05-06 16:29 | 45.76142 | -74.88960 | 28139 ft | 365 kts | 274° |
| 2026-05-06 16:29 | 45.76663 | -74.92515 | 28607 ft | 367 kts | 275° |
| 2026-05-06 16:29 | 45.77234 | -74.96069 | 29020 ft | 370 kts | 276° |
| 2026-05-06 16:29 | 45.77822 | -74.99669 | 29340 ft | 374 kts | 276° |
| 2026-05-06 16:30 | 45.78413 | -75.03312 | 29813 ft | 374 kts | 276° |
| 2026-05-06 16:30 | 45.78796 | -75.05710 | 30085 ft | 374 kts | 275° |
| 2026-05-06 16:30 | 45.79565 | -75.10606 | 30550 ft | 378 kts | 275° |
| 2026-05-06 16:30 | 45.80135 | -75.14294 | 30798 ft | 382 kts | 275° |
| 2026-05-06 16:31 | 45.80704 | -75.18013 | 31228 ft | 381 kts | 275° |
| 2026-05-06 16:31 | 45.81270 | -75.21731 | 31522 ft | 384 kts | 275° |
| 2026-05-06 16:31 | 45.81835 | -75.25462 | 31828 ft | 387 kts | 275° |
| 2026-05-06 16:31 | 45.82408 | -75.29269 | 32162 ft | 388 kts | 275° |
| 2026-05-06 16:32 | 45.82978 | -75.33060 | 32453 ft | 391 kts | 275° |
| 2026-05-06 16:32 | 45.83553 | -75.36880 | 32781 ft | 392 kts | 275° |
| 2026-05-06 16:32 | 45.84124 | -75.40693 | 33151 ft | 392 kts | 275° |
| 2026-05-06 16:32 | 45.84696 | -75.44527 | 33388 ft | 395 kts | 275° |
| 2026-05-06 16:33 | 45.85269 | -75.48368 | 33773 ft | 394 kts | 275° |
| 2026-05-06 16:33 | 45.85846 | -75.52248 | 33816 ft | 398 kts | 275° |
| 2026-05-06 16:34 | 45.87564 | -75.63827 | 33814 ft | 393 kts | 275° |
| 2026-05-06 16:34 | 45.88728 | -75.71740 | 33808 ft | 394 kts | 274° |
| 2026-05-06 16:35 | 45.89858 | -75.79461 | 33801 ft | 393 kts | 274° |
| 2026-05-06 16:35 | 45.90978 | -75.87151 | 33796 ft | 391 kts | 275° |
| 2026-05-06 16:36 | 45.92091 | -75.94818 | 33801 ft | 391 kts | 275° |
| 2026-05-06 16:36 | 45.93369 | -76.02455 | 33805 ft | 396 kts | 280° |
| 2026-05-06 16:37 | 45.95427 | -76.09877 | 33801 ft | 400 kts | 286° |
| 2026-05-06 16:37 | 45.97829 | -76.17132 | 33799 ft | 403 kts | 288° |
| 2026-05-06 16:38 | 46.00333 | -76.24355 | 33796 ft | 406 kts | 288° |
| 2026-05-06 16:38 | 46.02819 | -76.31639 | 33794 ft | 402 kts | 288° |
| 2026-05-06 16:39 | 46.05258 | -76.38918 | 33791 ft | 403 kts | 288° |
| 2026-05-06 16:39 | 46.07675 | -76.46223 | 33795 ft | 404 kts | 287° |
| 2026-05-06 16:40 | 46.10075 | -76.53521 | 33796 ft | 402 kts | 288° |
| 2026-05-06 16:40 | 46.12517 | -76.60984 | 33792 ft | 405 kts | 288° |
| 2026-05-06 16:41 | 46.14905 | -76.68298 | 33798 ft | 402 kts | 287° |
| 2026-05-06 16:41 | 46.17283 | -76.75602 | 33797 ft | 400 kts | 287° |
| 2026-05-06 16:42 | 46.19659 | -76.82944 | 34056 ft | 408 kts | 287° |
| 2026-05-06 16:42 | 46.20878 | -76.86717 | 34319 ft | 408 kts | 287° |
| 2026-05-06 16:42 | 46.22095 | -76.90475 | 34605 ft | 408 kts | 287° |
| 2026-05-06 16:42 | 46.23293 | -76.94176 | 34856 ft | 407 kts | 287° |
| 2026-05-06 16:43 | 46.24484 | -76.97868 | 35073 ft | 407 kts | 287° |
| 2026-05-06 16:43 | 46.25675 | -77.01568 | 35296 ft | 407 kts | 287° |
| 2026-05-06 16:43 | 46.26871 | -77.05291 | 35521 ft | 406 kts | 287° |
| 2026-05-06 16:43 | 46.28048 | -77.08957 | 35723 ft | 406 kts | 288° |
| 2026-05-06 16:44 | 46.29246 | -77.12700 | 35778 ft | 408 kts | 288° |
| 2026-05-06 16:44 | 46.31619 | -77.20120 | 35789 ft | 404 kts | 288° |
| 2026-05-06 16:45 | 46.33973 | -77.27493 | 35789 ft | 404 kts | 288° |
| 2026-05-06 16:45 | 46.36313 | -77.34847 | 35787 ft | 402 kts | 287° |
| 2026-05-06 16:46 | 46.38656 | -77.42239 | 35773 ft | 404 kts | 287° |
| 2026-05-06 16:46 | 46.41004 | -77.49666 | 35772 ft | 403 kts | 287° |
| 2026-05-06 16:47 | 46.43335 | -77.57055 | 35776 ft | 403 kts | 288° |
| 2026-05-06 16:47 | 46.45669 | -77.64477 | 35773 ft | 403 kts | 287° |
| 2026-05-06 16:48 | 46.48032 | -77.72018 | 35761 ft | 404 kts | 287° |
| 2026-05-06 16:48 | 46.50344 | -77.79407 | 35770 ft | 402 kts | 287° |
| 2026-05-06 16:49 | 46.52645 | -77.86798 | 35772 ft | 404 kts | 287° |
| 2026-05-06 16:49 | 46.54952 | -77.94212 | 35778 ft | 403 kts | 287° |
| 2026-05-06 16:50 | 46.57247 | -78.01629 | 35774 ft | 403 kts | 287° |
| 2026-05-06 16:50 | 46.59532 | -78.09022 | 35769 ft | 403 kts | 287° |
| 2026-05-06 16:51 | 46.61812 | -78.16423 | 35768 ft | 403 kts | 287° |
| 2026-05-06 16:51 | 46.64099 | -78.23866 | 35774 ft | 403 kts | 287° |
| 2026-05-06 16:52 | 46.66373 | -78.31297 | 35780 ft | 402 kts | 287° |
| 2026-05-06 16:52 | 46.68646 | -78.38740 | 35777 ft | 403 kts | 287° |
| 2026-05-06 16:53 | 46.70923 | -78.46222 | 35781 ft | 403 kts | 287° |
| 2026-05-06 16:53 | 46.73183 | -78.53666 | 35784 ft | 401 kts | 287° |
| 2026-05-06 16:54 | 46.75424 | -78.61070 | 35785 ft | 403 kts | 287° |
| 2026-05-06 16:54 | 46.77699 | -78.68608 | 35783 ft | 401 kts | 286° |
| 2026-05-06 16:55 | 46.79939 | -78.76057 | 35779 ft | 402 kts | 286° |
| 2026-05-06 16:55 | 46.82163 | -78.83472 | 35781 ft | 401 kts | 286° |
| 2026-05-06 16:56 | 46.84381 | -78.90893 | 35783 ft | 402 kts | 286° |
| 2026-05-06 16:56 | 46.86613 | -78.98383 | 35775 ft | 402 kts | 286° |
| 2026-05-06 16:57 | 46.88832 | -79.05847 | 35787 ft | 403 kts | 286° |
| 2026-05-06 16:57 | 46.91056 | -79.13351 | 35766 ft | 402 kts | 286° |
| 2026-05-06 16:58 | 46.93271 | -79.20848 | 35775 ft | 404 kts | 286° |
| 2026-05-06 16:58 | 46.95483 | -79.28353 | 35777 ft | 402 kts | 287° |
| 2026-05-06 16:59 | 46.97690 | -79.35869 | 35775 ft | 404 kts | 287° |
| 2026-05-06 16:59 | 46.99897 | -79.43412 | 35781 ft | 405 kts | 287° |
| 2026-05-06 17:00 | 47.02113 | -79.50997 | 35781 ft | 405 kts | 286° |
| 2026-05-06 17:00 | 47.04319 | -79.58584 | 35781 ft | 408 kts | 287° |
| 2026-05-06 17:01 | 47.06531 | -79.66204 | 35781 ft | 406 kts | 286° |
| 2026-05-06 17:01 | 47.08739 | -79.73842 | 35770 ft | 405 kts | 286° |
| 2026-05-06 17:02 | 47.10932 | -79.81446 | 35762 ft | 406 kts | 286° |
| 2026-05-06 17:02 | 47.13137 | -79.89125 | 35763 ft | 408 kts | 286° |
| 2026-05-06 17:03 | 47.15322 | -79.96750 | 35785 ft | 407 kts | 287° |
| 2026-05-06 17:03 | 47.17518 | -80.04440 | 35782 ft | 409 kts | 287° |
| 2026-05-06 17:04 | 47.19702 | -80.12113 | 35777 ft | 409 kts | 287° |
| 2026-05-06 17:04 | 47.21886 | -80.19813 | 35778 ft | 411 kts | 287° |
| 2026-05-06 17:05 | 47.24078 | -80.27566 | 35776 ft | 411 kts | 287° |
| 2026-05-06 17:05 | 47.26274 | -80.35356 | 35765 ft | 411 kts | 287° |
| 2026-05-06 17:06 | 47.28448 | -80.43091 | 35762 ft | 411 kts | 287° |
| 2026-05-06 17:06 | 47.30623 | -80.50850 | 35768 ft | 412 kts | 287° |
| 2026-05-06 17:07 | 47.32798 | -80.58639 | 35769 ft | 413 kts | 287° |
| 2026-05-06 17:07 | 47.34981 | -80.66484 | 35765 ft | 413 kts | 287° |
| 2026-05-06 17:08 | 47.37151 | -80.74311 | 35765 ft | 414 kts | 287° |
| 2026-05-06 17:08 | 47.39321 | -80.82162 | 35764 ft | 414 kts | 287° |
| 2026-05-06 17:09 | 47.41482 | -80.90007 | 35770 ft | 415 kts | 287° |
| 2026-05-06 17:09 | 47.43647 | -80.97887 | 35776 ft | 417 kts | 287° |
| 2026-05-06 17:10 | 47.45811 | -81.05786 | 35777 ft | 417 kts | 287° |
| 2026-05-06 17:10 | 47.47983 | -81.13734 | 35779 ft | 418 kts | 287° |
| 2026-05-06 17:11 | 47.50137 | -81.21655 | 35776 ft | 416 kts | 287° |
| 2026-05-06 17:11 | 47.50729 | -81.23837 | 35777 ft | 417 kts | 287° |
| 2026-05-06 17:12 | 47.52068 | -81.28779 | 35772 ft | 416 kts | 287° |
| 2026-05-06 17:13 | 47.53945 | -81.35731 | 35776 ft | 418 kts | 287° |
| 2026-05-06 17:13 | 47.56096 | -81.43717 | 35774 ft | 417 kts | 287° |
| 2026-05-06 17:14 | 47.58245 | -81.51722 | 35777 ft | 419 kts | 287° |
| 2026-05-06 17:14 | 47.60395 | -81.59756 | 35777 ft | 419 kts | 288° |
| 2026-05-06 17:15 | 47.62563 | -81.67888 | 35778 ft | 420 kts | 287° |
| 2026-05-06 17:15 | 47.64747 | -81.76107 | 35778 ft | 420 kts | 287° |
| 2026-05-06 17:16 | 47.66882 | -81.84171 | 35780 ft | 420 kts | 287° |
| 2026-05-06 17:16 | 47.69007 | -81.92229 | 35779 ft | 422 kts | 287° |
| 2026-05-06 17:17 | 47.71124 | -82.00279 | 35773 ft | 421 kts | 287° |
| 2026-05-06 17:17 | 47.73245 | -82.08368 | 35774 ft | 422 kts | 287° |
| 2026-05-06 17:18 | 47.75359 | -82.16458 | 35775 ft | 422 kts | 287° |